createdAt,value
2018-06-12T00:03:06.138Z,13.13
2018-06-12T00:12:33.720Z,14.13
2018-06-12T00:18:07.634Z,14.23
2018-06-12T00:20:53.686Z,13.43
2018-06-12T00:27:00.816Z,13.37
2018-06-12T00:29:45.401Z,15.23
2018-06-12T00:36:20.500Z,14.97
2018-06-12T00:41:56.968Z,14.97
2018-06-12T00:44:53.017Z,14.30
2018-06-12T00:50:19.621Z,15.40
2018-06-12T00:53:01.221Z,15.40
2018-06-12T01:02:21.135Z,16.90
2018-06-12T01:11:04.111Z,16.30
2018-06-12T01:14:05.466Z,17.37
2018-06-12T01:17:13.924Z,17.37
2018-06-12T01:19:57.258Z,16.10
2018-06-12T01:22:48.613Z,17.60
2018-06-12T01:34:26.031Z,17.83
2018-06-12T01:37:01.306Z,17.40
2018-06-12T01:39:42.742Z,17.60
2018-06-12T01:42:17.521Z,17.40
2018-06-12T01:44:55.942Z,17.70
2018-06-12T01:47:31.480Z,19.53
2018-06-12T01:50:11.413Z,15.20
2018-06-12T01:52:52.529Z,17.50
2018-06-12T02:00:56.870Z,15.83
2018-06-12T02:03:37.939Z,17.30
2018-06-12T02:06:12.901Z,18.50
2018-06-12T02:08:47.034Z,16.30
2018-06-12T02:11:31.732Z,17.97
2018-06-12T02:19:34.159Z,16.50
2018-06-12T02:22:10.883Z,16.80
2018-06-12T02:24:47.324Z,16.87
2018-06-12T02:27:25.893Z,17.17
2018-06-12T02:30:07.237Z,16.77
2018-06-12T02:32:49.196Z,18.37
2018-06-12T02:35:28.081Z,19.37
2018-06-12T02:38:03.081Z,20.30
2018-06-12T02:40:52.239Z,19.20
2018-06-12T02:43:30.945Z,19.57
2018-06-12T02:46:07.573Z,20.00
2018-06-12T02:48:47.622Z,21.40
2018-06-12T02:51:26.073Z,20.73
2018-06-12T02:54:03.158Z,20.70
2018-06-12T02:56:41.740Z,22.73
2018-06-12T02:59:21.216Z,22.10
2018-06-12T03:02:07.463Z,20.50
2018-06-12T03:04:52.736Z,20.50
2018-06-12T03:07:38.322Z,21.40
2018-06-12T03:10:18.335Z,19.83
2018-06-12T03:15:47.176Z,20.00
2018-06-12T03:18:38.969Z,21.63
2018-06-12T03:21:16.901Z,20.90
2018-06-12T03:23:54.069Z,19.90
2018-06-12T03:26:34.099Z,24.00
2018-06-12T03:29:15.486Z,18.73
2018-06-12T03:31:56.074Z,20.40
2018-06-12T03:34:37.158Z,20.00
2018-06-12T03:37:12.895Z,18.67
2018-06-12T03:40:01.085Z,20.10
2018-06-12T03:45:19.040Z,17.97
2018-06-12T03:50:59.997Z,18.47
2018-06-12T03:53:42.611Z,18.00
2018-06-12T03:56:29.517Z,18.47
2018-06-12T03:59:08.893Z,18.33
2018-06-12T04:09:42.437Z,17.50
2018-06-12T04:12:23.634Z,19.20
2018-06-12T04:15:11.774Z,19.77
2018-06-12T04:17:57.792Z,21.43
2018-06-12T04:20:40.111Z,18.70
2018-06-12T04:23:19.121Z,20.97
2018-06-12T04:26:13.531Z,18.70
2018-06-12T04:29:08.360Z,19.47
2018-06-12T04:41:11.809Z,15.67
2018-06-12T04:44:58.632Z,13.80
2018-06-12T04:47:41.979Z,15.20
2018-06-12T23:53:09.229Z,3.08
2018-06-12T23:55:53.231Z,2.53
2018-06-12T23:58:33.951Z,2.70
